LFSI 301030Z AUTO 08014KT 030V120 CAVOK 22/02 Q1020

ElémentsDécodage
LFSI Station météo située sur l'aérodrome de SAINT-DIZIER Robinson
301030Z émis le 30 du mois à 10h30 UTC
AUTO Bulletin édité par un automate
08014KT vent du 080°, 14 noeuds
030V120 vent de direction variable entre 030° et 120°
CAVOK Ceiling And Visibility OK
- Visibilité de 10 Km ou plus
- Pas de nuage au-dessous de 1500m ou au-dessous de l'altitude minimale du secteur la plus élevée (si>1500m) et absence de CB
- pas de temps présent significatif
22/02 température 22°C, point de rosée 02°C
 soit une humidité relative de 27%
Q1020 la pression au niveau de la mer (QNH) est de 1020 hPa